createdAt,value
2022-08-26T00:03:01.162Z,3.58
2022-08-26T00:06:22.909Z,3.35
2022-08-26T00:09:47.416Z,3.55
2022-08-26T00:13:11.122Z,3.75
2022-08-26T00:16:33.146Z,3.65
2022-08-26T00:19:54.869Z,3.25
2022-08-26T00:23:17.647Z,3.47
2022-08-26T00:26:40.079Z,3.78
2022-08-26T00:30:10.263Z,4.07
2022-08-26T00:33:32.056Z,3.72
2022-08-26T00:36:54.333Z,3.53
2022-08-26T00:40:19.335Z,3.65
2022-08-26T00:43:47.569Z,3.65
2022-08-26T00:47:19.051Z,4.18
2022-08-26T00:50:49.112Z,4.03
2022-08-26T00:54:12.665Z,3.83
2022-08-26T00:57:35.569Z,4.30
2022-08-26T01:00:57.518Z,4.55
2022-08-26T01:04:22.431Z,4.75
2022-08-26T01:07:45.228Z,4.88
2022-08-26T01:11:07.995Z,4.80
2022-08-26T01:14:34.967Z,4.53
2022-08-26T01:17:59.519Z,4.93
2022-08-26T01:21:46.283Z,5.32
2022-08-26T01:25:08.470Z,5.00
2022-08-26T01:28:33.060Z,5.57
2022-08-26T01:31:57.542Z,5.85
2022-08-26T01:35:20.491Z,5.75
2022-08-26T01:38:42.939Z,6.15
2022-08-26T01:42:10.453Z,6.45
2022-08-26T01:45:34.591Z,7.40
2022-08-26T01:49:00.519Z,8.73
2022-08-26T01:52:28.349Z,7.85
2022-08-26T01:55:55.881Z,7.85
2022-08-26T01:59:20.181Z,7.70
2022-08-26T02:02:47.767Z,8.73
2022-08-26T02:06:10.237Z,9.77
2022-08-26T02:09:32.504Z,9.50
2022-08-26T02:13:00.314Z,9.90
2022-08-26T02:16:26.834Z,11.02
2022-08-26T02:19:49.990Z,13.18
2022-08-26T02:23:12.038Z,18.50
2022-08-26T02:26:34.301Z,15.07
2022-08-26T02:30:02.761Z,16.48
2022-08-26T02:33:24.586Z,13.60
2022-08-26T02:36:46.745Z,16.17
2022-08-26T02:40:11.523Z,15.40
2022-08-26T02:43:33.393Z,16.35
2022-08-26T02:46:55.669Z,18.95
2022-08-26T02:50:18.335Z,18.13
2022-08-26T02:53:40.077Z,17.85
2022-08-26T02:57:05.873Z,19.08
2022-08-26T03:00:29.069Z,21.83
2022-08-26T03:03:51.537Z,21.35
2022-08-26T03:07:13.280Z,26.05
2022-08-26T03:10:34.967Z,27.27
2022-08-26T03:13:57.433Z,28.00
2022-08-26T03:17:19.342Z,28.17
2022-08-26T03:20:41.708Z,30.02
2022-08-26T03:24:04.042Z,33.00
2022-08-26T03:27:25.890Z,33.00
2022-08-26T03:30:49.157Z,35.72
2022-08-26T03:34:11.209Z,34.60
2022-08-26T03:37:33.166Z,31.35
2022-08-26T03:40:56.179Z,35.45
2022-08-26T03:44:18.044Z,37.33
2022-08-26T03:47:40.555Z,35.80
2022-08-26T03:51:04.055Z,38.03
2022-08-26T03:54:26.125Z,39.13
2022-08-26T03:57:47.887Z,39.47
2022-08-26T04:01:11.248Z,40.72
2022-08-26T04:04:33.049Z,39.88
2022-08-26T04:07:54.922Z,40.92
2022-08-26T04:11:20.257Z,39.80
2022-08-26T04:14:42.970Z,39.47
2022-08-26T04:18:06.269Z,39.58
2022-08-26T04:21:28.809Z,42.55
2022-08-26T04:24:51.087Z,41.40
2022-08-26T04:28:14.711Z,40.50
2022-08-26T04:31:37.143Z,40.25
2022-08-26T04:34:58.887Z,41.00
2022-08-26T04:38:22.456Z,39.80
2022-08-26T04:41:44.863Z,39.60
2022-08-26T04:45:10.379Z,39.47
2022-08-26T04:48:34.286Z,40.50
2022-08-26T04:51:57.112Z,39.92
2022-08-26T04:55:19.022Z,42.53
2022-08-26T04:58:41.814Z,40.67
2022-08-26T05:02:03.950Z,41.63
2022-08-26T05:05:27.559Z,39.08
2022-08-26T05:08:49.377Z,39.60
2022-08-26T05:12:11.136Z,39.03
2022-08-26T05:15:34.907Z,38.88
2022-08-26T05:18:57.389Z,37.13
2022-08-26T05:22:20.093Z,38.60
2022-08-26T05:25:46.216Z,37.78
2022-08-26T05:29:08.341Z,36.72
2022-08-26T05:32:31.881Z,35.60
2022-08-26T05:35:53.841Z,36.60
2022-08-26T05:39:15.576Z,37.03
2022-08-26T05:42:37.803Z,35.40
2022-08-26T05:46:06.713Z,35.08
2022-08-26T05:49:28.531Z,33.85
2022-08-26T05:52:51.098Z,34.05
2022-08-26T05:56:12.973Z,32.15
2022-08-26T05:59:34.633Z,31.70
2022-08-26T06:02:59.268Z,31.17
2022-08-26T06:06:33.264Z,31.50
2022-08-26T06:10:21.404Z,29.70
2022-08-26T06:13:39.167Z,29.77
2022-08-26T06:17:02.118Z,27.05
2022-08-26T06:20:24.926Z,26.67
2022-08-26T06:24:08.676Z,26.55
2022-08-26T06:27:32.778Z,26.02
2022-08-26T06:30:55.493Z,25.92
2022-08-26T06:34:17.457Z,25.00
2022-08-26T06:37:39.316Z,23.85
2022-08-26T06:41:02.990Z,22.25
2022-08-26T06:44:24.761Z,23.17
2022-08-26T06:47:46.531Z,23.63
2022-08-26T06:51:13.151Z,22.05
2022-08-26T06:54:36.917Z,22.58
2022-08-26T06:58:00.671Z,22.63
2022-08-26T07:01:25.710Z,22.02
2022-08-26T07:04:47.834Z,22.55
2022-08-26T07:08:09.807Z,21.80
2022-08-26T07:11:33.332Z,22.13
2022-08-26T07:14:55.130Z,20.88
2022-08-26T07:18:19.453Z,20.40
2022-08-26T07:21:44.620Z,20.50
2022-08-26T07:25:08.937Z,20.52
2022-08-26T07:28:30.860Z,20.85
2022-08-26T07:31:52.537Z,20.38
2022-08-26T07:35:14.767Z,18.67
2022-08-26T07:38:40.308Z,19.08
2022-08-26T07:42:07.518Z,19.05
2022-08-26T07:45:30.023Z,19.02
2022-08-26T07:48:51.755Z,18.40
2022-08-26T07:52:13.527Z,17.63
2022-08-26T07:55:35.368Z,18.05
2022-08-26T07:58:59.219Z,18.15
2022-08-26T08:02:21.070Z,17.10
2022-08-26T08:05:42.818Z,16.13
2022-08-26T08:09:08.125Z,17.70
2022-08-26T08:12:30.061Z,17.80
2022-08-26T08:15:51.746Z,16.63
2022-08-26T08:19:14.214Z,15.50
2022-08-26T08:22:36.342Z,14.45
2022-08-26T08:26:02.398Z,13.38
2022-08-26T08:29:24.703Z,13.18
2022-08-26T08:32:46.478Z,13.68
2022-08-26T08:36:09.201Z,13.60
2022-08-26T08:39:32.375Z,12.05
2022-08-26T08:43:03.822Z,14.07
2022-08-26T08:46:26.038Z,13.40
2022-08-26T08:49:48.392Z,13.80
2022-08-26T08:53:31.592Z,11.45
2022-08-26T08:57:05.767Z,11.38
2022-08-26T09:00:35.580Z,12.00
2022-08-26T09:04:19.583Z,11.65
2022-08-26T09:07:55.359Z,12.05
2022-08-26T09:11:19.903Z,12.30
2022-08-26T09:14:49.419Z,12.02
2022-08-26T09:18:19.048Z,10.80
2022-08-26T09:21:40.817Z,11.73
2022-08-26T09:25:07.618Z,10.63
2022-08-26T09:28:32.958Z,11.20
2022-08-26T09:32:22.182Z,10.15
2022-08-26T09:35:47.283Z,9.40
2022-08-26T09:39:28.313Z,10.27
2022-08-26T09:43:13.629Z,9.57
2022-08-26T09:46:36.077Z,10.02
2022-08-26T09:50:09.691Z,9.52
2022-08-26T09:53:36.479Z,8.52
2022-08-26T09:57:35.558Z,8.13
2022-08-26T10:01:01.427Z,9.23
2022-08-26T10:04:26.185Z,8.85
2022-08-26T10:07:50.978Z,8.13
2022-08-26T10:11:28.781Z,8.25
2022-08-26T10:14:56.186Z,8.00
2022-08-26T10:18:35.341Z,8.35
2022-08-26T10:22:04.068Z,8.45
2022-08-26T10:25:40.696Z,8.52
2022-08-26T10:29:21.082Z,8.73
2022-08-26T10:32:51.880Z,7.82
2022-08-26T10:36:52.331Z,8.48
2022-08-26T10:40:23.160Z,7.70
2022-08-26T10:43:50.639Z,7.10
2022-08-26T10:47:18.286Z,7.57
2022-08-26T10:50:43.052Z,6.85
2022-08-26T10:54:15.044Z,6.40
2022-08-26T10:57:42.785Z,6.85
2022-08-26T11:01:40.770Z,6.03
2022-08-26T11:05:06.813Z,5.85
2022-08-26T11:08:29.818Z,6.55
2022-08-26T11:11:51.782Z,6.50
2022-08-26T11:15:36.536Z,6.93
2022-08-26T11:18:58.950Z,7.35
2022-08-26T11:22:36.351Z,6.13
2022-08-26T11:26:00.742Z,5.80
2022-08-26T11:30:06.481Z,6.20
2022-08-26T11:33:43.855Z,6.40
2022-08-26T11:37:14.372Z,6.03
2022-08-26T11:40:41.548Z,6.88
2022-08-26T11:44:07.017Z,6.03
2022-08-26T11:47:31.556Z,6.53
2022-08-26T11:51:08.758Z,6.53
2022-08-26T11:54:35.719Z,6.10
2022-08-26T11:58:00.874Z,5.68
2022-08-26T12:01:44.402Z,5.03
2022-08-26T12:05:07.951Z,6.13
2022-08-26T12:08:34.362Z,4.68
2022-08-26T12:12:12.189Z,5.30
2022-08-26T12:15:35.621Z,5.00
2022-08-26T12:18:57.435Z,5.35
2022-08-26T12:22:29.646Z,4.95
2022-08-26T12:26:01.984Z,4.80
2022-08-26T12:29:28.001Z,4.70
2022-08-26T12:32:57.793Z,4.55
2022-08-26T12:36:27.641Z,4.97
2022-08-26T12:39:50.834Z,3.53
2022-08-26T12:43:17.052Z,4.05
2022-08-26T12:46:38.773Z,4.40
2022-08-26T12:50:18.173Z,3.63
2022-08-26T12:53:43.934Z,4.25
2022-08-26T12:57:12.761Z,4.10
2022-08-26T13:00:37.630Z,3.90
2022-08-26T13:03:59.377Z,4.60
2022-08-26T13:07:24.265Z,4.03
2022-08-26T13:10:47.938Z,4.85
2022-08-26T13:14:12.485Z,3.80
2022-08-26T13:17:40.234Z,4.30
2022-08-26T13:21:09.024Z,4.40
2022-08-26T13:24:36.932Z,3.88
2022-08-26T13:27:58.632Z,4.22
2022-08-26T13:31:20.471Z,4.05
2022-08-26T13:34:51.387Z,3.90
2022-08-26T13:38:32.979Z,4.10
2022-08-26T13:41:55.355Z,3.78
2022-08-26T13:45:17.657Z,3.97
2022-08-26T13:48:40.113Z,4.32
2022-08-26T13:52:06.883Z,4.32
2022-08-26T13:55:28.926Z,4.30
2022-08-26T13:58:50.747Z,3.63
2022-08-26T14:02:12.479Z,4.03
2022-08-26T14:05:34.299Z,4.18
2022-08-26T14:08:57.700Z,4.07
2022-08-26T14:12:19.471Z,4.00
2022-08-26T14:15:41.844Z,4.07
2022-08-26T14:19:05.717Z,3.50
2022-08-26T14:22:27.986Z,3.80
2022-08-26T14:25:49.766Z,3.42
2022-08-26T14:29:14.693Z,3.72
2022-08-26T14:32:43.192Z,3.67
2022-08-26T14:36:27.015Z,3.78
2022-08-26T14:39:48.811Z,3.80
2022-08-26T14:43:13.738Z,3.30
2022-08-26T14:46:44.452Z,3.30
2022-08-26T14:50:06.722Z,3.90
2022-08-26T14:53:46.976Z,3.40
2022-08-26T14:57:10.990Z,3.45
2022-08-26T15:00:33.268Z,3.60
2022-08-26T15:03:56.487Z,4.10
2022-08-26T15:07:18.540Z,4.00
2022-08-26T15:10:40.302Z,3.60
2022-08-26T15:14:02.530Z,3.55
2022-08-26T15:17:24.380Z,3.97
2022-08-26T15:20:46.095Z,3.47
2022-08-26T15:24:08.020Z,3.67
2022-08-26T15:27:29.941Z,3.95
2022-08-26T15:30:51.861Z,4.07
2022-08-26T15:34:16.653Z,4.10
2022-08-26T15:37:38.849Z,3.95
2022-08-26T15:41:03.275Z,4.25
2022-08-26T15:44:26.215Z,4.13
2022-08-26T15:48:04.315Z,4.22
2022-08-26T15:51:35.743Z,4.50
2022-08-26T15:55:08.375Z,4.22
2022-08-26T15:58:30.167Z,4.53
2022-08-26T16:01:52.316Z,4.25
2022-08-26T16:05:14.267Z,5.00
2022-08-26T16:08:36.404Z,4.20
2022-08-26T16:11:58.674Z,4.05
2022-08-26T16:15:21.742Z,4.57
2022-08-26T16:18:44.131Z,4.10
2022-08-26T16:22:07.983Z,3.85
2022-08-26T16:25:30.463Z,3.72
2022-08-26T16:28:52.383Z,4.28
2022-08-26T16:32:14.146Z,3.70
2022-08-26T16:35:35.843Z,3.63
2022-08-26T16:38:57.714Z,3.50
2022-08-26T16:42:19.413Z,3.08
2022-08-26T16:45:41.187Z,2.95
2022-08-26T16:49:04.464Z,3.33
2022-08-26T16:52:26.189Z,3.38
2022-08-26T16:55:53.024Z,3.13
2022-08-26T16:59:14.778Z,3.20
2022-08-26T17:02:36.608Z,3.05
2022-08-26T17:05:58.402Z,3.13
2022-08-26T17:09:21.008Z,3.05
2022-08-26T17:12:42.672Z,3.40
2022-08-26T17:16:07.267Z,3.20
2022-08-26T17:19:29.904Z,3.15
2022-08-26T17:23:02.488Z,3.55
2022-08-26T17:26:24.542Z,3.80
2022-08-26T17:29:46.404Z,3.88
2022-08-26T17:33:10.994Z,4.20
2022-08-26T17:36:33.389Z,4.55
2022-08-26T17:39:55.108Z,4.78
2022-08-26T17:43:17.622Z,4.35
2022-08-26T17:46:39.459Z,5.57
2022-08-26T17:50:01.501Z,5.32
2022-08-26T17:53:24.434Z,5.13
2022-08-26T17:56:46.176Z,5.35
2022-08-26T18:00:14.467Z,4.75
2022-08-26T18:03:36.446Z,5.88
2022-08-26T18:06:58.159Z,5.38
2022-08-26T18:10:20.710Z,4.68
2022-08-26T18:13:47.117Z,5.60
2022-08-26T18:17:09.255Z,6.07
2022-08-26T18:20:31.124Z,6.00
2022-08-26T18:23:53.959Z,5.95
2022-08-26T18:27:15.698Z,5.85
2022-08-26T18:30:37.740Z,6.05
2022-08-26T18:34:01.545Z,5.55
2022-08-26T18:37:24.178Z,5.95
2022-08-26T18:40:47.835Z,5.97
2022-08-26T18:44:13.419Z,5.68
2022-08-26T18:47:36.194Z,5.70
2022-08-26T18:51:00.008Z,7.03
2022-08-26T18:54:22.077Z,6.28
2022-08-26T18:57:43.973Z,6.18
2022-08-26T19:01:06.203Z,6.15
2022-08-26T19:04:28.072Z,6.40
2022-08-26T19:07:49.895Z,6.72
2022-08-26T19:11:12.819Z,7.07
2022-08-26T19:14:36.368Z,6.50
2022-08-26T19:17:58.661Z,7.22
2022-08-26T19:21:22.133Z,6.20
2022-08-26T19:24:43.787Z,6.68
2022-08-26T19:28:05.674Z,6.55
2022-08-26T19:31:28.873Z,5.85
2022-08-26T19:34:51.693Z,6.20
2022-08-26T19:38:16.094Z,5.95
2022-08-26T19:41:39.826Z,5.57
2022-08-26T19:45:07.981Z,5.88
2022-08-26T19:48:43.825Z,5.75
2022-08-26T19:52:06.243Z,5.60
2022-08-26T19:55:28.057Z,5.75
2022-08-26T19:58:50.678Z,5.47
2022-08-26T20:02:13.336Z,5.75
2022-08-26T20:05:35.560Z,5.78
2022-08-26T20:08:57.685Z,5.97
2022-08-26T20:12:19.619Z,5.38
2022-08-26T20:15:41.507Z,5.50
2022-08-26T20:19:21.887Z,4.82
2022-08-26T20:22:44.125Z,5.10
2022-08-26T20:26:05.992Z,5.05
2022-08-26T20:29:27.763Z,4.97
2022-08-26T20:32:49.632Z,4.38
2022-08-26T20:36:11.712Z,4.07
2022-08-26T20:39:33.775Z,4.70
2022-08-26T20:42:55.468Z,4.32
2022-08-26T20:46:21.025Z,3.80
2022-08-26T20:49:45.547Z,4.72
2022-08-26T20:53:08.179Z,4.10
2022-08-26T20:56:29.967Z,4.72
2022-08-26T20:59:51.703Z,5.28
2022-08-26T21:03:14.250Z,5.22
2022-08-26T21:06:38.146Z,4.45
2022-08-26T21:10:00.543Z,4.80
2022-08-26T21:13:22.221Z,4.68
2022-08-26T21:16:45.167Z,5.20
2022-08-26T21:20:07.970Z,4.78
2022-08-26T21:23:29.884Z,4.95
2022-08-26T21:26:51.653Z,4.63
2022-08-26T21:30:15.128Z,4.63
2022-08-26T21:33:37.533Z,4.80
2022-08-26T21:36:59.495Z,4.30
2022-08-26T21:40:21.793Z,4.65
2022-08-26T21:43:43.588Z,4.05
2022-08-26T21:47:05.697Z,4.22
2022-08-26T21:50:29.404Z,4.25
2022-08-26T21:53:52.724Z,3.60
2022-08-26T21:57:14.502Z,4.05
2022-08-26T22:00:36.376Z,3.58
2022-08-26T22:03:58.632Z,3.33
2022-08-26T22:07:21.170Z,3.47
2022-08-26T22:10:42.895Z,3.90
2022-08-26T22:14:04.911Z,3.88
2022-08-26T22:17:28.445Z,4.15
2022-08-26T22:20:52.592Z,3.63
2022-08-26T22:24:14.472Z,3.70
2022-08-26T22:27:40.347Z,3.63
2022-08-26T22:31:06.648Z,3.75
2022-08-26T22:34:28.434Z,3.53
2022-08-26T22:37:50.209Z,3.42
2022-08-26T22:41:12.378Z,3.67
2022-08-26T22:44:36.787Z,3.20
2022-08-26T22:48:00.090Z,3.20
2022-08-26T22:51:22.987Z,3.60
2022-08-26T22:54:45.230Z,3.22
2022-08-26T22:58:07.831Z,3.45
2022-08-26T23:01:30.057Z,3.60
2022-08-26T23:04:52.263Z,3.30
2022-08-26T23:08:15.263Z,3.80
2022-08-26T23:11:39.560Z,3.85
2022-08-26T23:15:06.509Z,3.53
2022-08-26T23:18:28.372Z,3.50
2022-08-26T23:21:50.915Z,3.30
2022-08-26T23:25:13.484Z,3.33
2022-08-26T23:28:37.029Z,3.00
2022-08-26T23:31:59.005Z,3.17
2022-08-26T23:35:21.560Z,3.72
2022-08-26T23:38:43.563Z,3.08
2022-08-26T23:42:06.499Z,3.25
2022-08-26T23:45:28.384Z,2.83
2022-08-26T23:48:50.268Z,3.67
2022-08-26T23:52:30.562Z,2.80
2022-08-26T23:55:52.870Z,3.05
2022-08-26T23:59:15.526Z,3.05
